Terminal Aerodrome Forecast
Issued by NWS

Home | Current Version | Previous Version | Graphics & Text | Print | Product List | Glossary On
Versions: 1 2 3 4 5 6 7 8 9 10 11 12 13 14 15 16 17
000
FTUS43 KFGF 070525
TAFBJI
TAF
KBJI 070525Z 0706/0806 27020G28KT 1 1/2SM -SN OVC015
     FM071500 29018G28KT 4SM -SN OVC014
     FM072100 29017G27KT 1 1/2SM -SN OVC008
     FM080300 30016G25KT 3SM -SN OVC010=

USA.gov is the U.S. government's official web portal to all federal, state and local government web resources and services.